Terminal Aerodrome Forecast
Issued by NWS

Home | Current Version | Previous Version | Text Only | Print | Product List | Glossary On
Versions: 1 2 3 4 5 6 7 8 9 10 11 12 13 14 15 16 17 18 19 20 21 22 23 24 25 26 27 28 29 30 31 32 33 34 35 36 37 38 39 40 41 42 43 44 45 46 47 48 49 50
458
FTUS43 KMKX 080544
TAFENW
TAF
KENW 080544Z 0806/0906 25009KT P6SM SCT150
     FM081000 27008KT P6SM VCSH BKN025 OVC045
     FM081200 29009KT 6SM -SN OVC015
     FM082000 30013KT 5SM -SN OVC025
     FM082300 31012KT 3SM -SN OVC015
     FM090200 31012KT 2SM -SN OVC010=

USA.gov is the U.S. government's official web portal to all federal, state and local government web resources and services.